Time;durP1;ratioP1;P1;durP2;ratioP2;P2;SDS_P1;SDS_P2;PMS_P1;PMS_P2;Temp;Humidity;BMP_temperature;BMP_pressure;BME280_temperature;BME280_humidity;BME280_pressure;Samples;Min_cycle;Max_cycle;Signal;HPM_P1;HPM_P2
2022/08/22 00:01:29;;;;;;;12.55;6.50;;;;;;;;;;6195653;23;20013;-87
2022/08/22 00:04:34;;;;;;;14.35;6.53;;;17.00;99.90;;;;;;6224940;23;20020;-87
2022/08/22 00:07:19;;;;;;;19.55;7.20;;;;;;;;;;6231658;23;20028;-86
2022/08/22 00:10:01;;;;;;;12.75;7.13;;;;;;;;;;6231207;23;20109;-88
2022/08/22 00:12:32;;;;;;;22.75;7.15;;;;;;;;;;6248955;23;20441;-88
2022/08/22 00:14:58;;;;;;;22.60;8.30;;;;;;;;;;6225212;23;20020;-86
2022/08/22 00:17:43;;;;;;;15.18;7.05;;;;;;;;;;6224719;23;20023;-88
2022/08/22 00:20:09;;;;;;;14.15;6.47;;;;;;;;;;6250948;23;20016;-88
2022/08/22 00:22:42;;;;;;;14.02;6.50;;;;;;;;;;6251256;23;20024;-88
2022/08/22 00:25:27;;;;;;;18.88;6.95;;;;;;;;;;6198344;23;20095;-88
2022/08/22 00:27:58;;;;;;;17.70;6.70;;;;;;;;;;6249785;23;20016;-87
2022/08/22 00:30:26;;;;;;;13.98;7.10;;;;;;;;;;6246486;23;20039;-84
2022/08/22 00:33:03;;;;;;;17.75;7.35;;;;;;;;;;6222282;23;20028;-85
2022/08/22 00:35:37;;;;;;;16.02;7.53;;;;;;;;;;6221434;23;20020;-85
2022/08/22 00:38:21;;;;;;;16.10;6.78;;;;;;;;;;6248425;23;20024;-85
2022/08/22 00:41:02;;;;;;;15.18;7.15;;;;;;;;;;6196523;23;20091;-86
2022/08/22 00:43:47;;;;;;;13.70;7.05;;;;;;;;;;6218437;23;20020;-85
2022/08/22 00:46:32;;;;;;;14.25;5.72;;;;;;;;;;6250308;23;20236;-86
2022/08/22 00:49:01;;;;;;;12.43;7.32;;;;;;;;;;6199383;23;20016;-85
2022/08/22 00:51:59;;;;;;;16.80;7.38;;;;;;;;;;6221825;23;20020;-86
2022/08/22 00:54:42;;;;;;;16.85;7.30;;;;;;;;;;6221786;23;20451;-85
2022/08/22 00:57:20;;;;;;;14.17;7.90;;;;;;;;;;6248226;23;20031;-85
2022/08/22 01:00:12;;;;;;;12.77;7.00;;;;;;;;;;6222044;23;20016;-85
2022/08/22 01:02:50;;;;;;;18.27;6.88;;;;;;;;;;6248428;23;20170;-84
2022/08/22 01:05:27;;;;;;;15.35;6.07;;;;;;;;;;6221151;23;20020;-87
2022/08/22 01:08:08;;;;;;;11.82;6.47;;;;;;;;;;6250991;23;20106;-85
2022/08/22 01:10:53;;;;;;;10.25;6.90;;;;;;;;;;6250934;23;20020;-87
2022/08/22 01:13:36;;;;;;;13.52;7.10;;;;;;;;;;6225199;23;20020;-88
2022/08/22 01:16:13;;;;;;;19.20;7.57;;;;;;;;;;6198353;23;20016;-87
2022/08/22 01:18:49;;;;;;;15.13;6.43;;;;;;;;;;6251059;23;20124;-87
2022/08/22 01:21:37;;;;;;;16.05;7.95;;;;;;;;;;6250845;23;20023;-87
2022/08/22 01:24:17;;;;;;;14.63;7.28;;;;;;;;;;6222357;23;20020;-87
2022/08/22 01:27:13;;;;;;;19.33;7.40;;;;;;;;;;6222363;23;20024;-86
2022/08/22 01:29:45;;;;;;;22.40;8.05;;;;;;;;;;6197866;23;20082;-87
2022/08/22 01:32:31;;;;;;;18.02;7.47;;;;;;;;;;6223276;23;20490;-87
2022/08/22 01:35:23;;;;;;;13.60;7.78;;;;;;;;;;6250741;23;20016;-86
2022/08/22 01:37:52;;;;;;;15.77;7.10;;;;;;;;;;6193275;23;20024;-87
2022/08/22 01:40:37;;;;;;;17.33;7.60;;;;;;;;;;6251592;23;20475;-86
2022/08/22 01:43:19;;;;;;;16.20;7.70;;;;;;;;;;6249041;23;20100;-87
2022/08/22 01:46:11;;;;;;;17.77;6.65;;;;;;;;;;6197264;23;20468;-87
2022/08/22 01:48:37;;;;;;;18.70;7.30;;;;;;;;;;6173886;23;20070;-89
2022/08/22 01:51:10;;;;;;;14.90;6.40;;;;;;;;;;6196794;23;20024;-87
2022/08/22 01:53:36;;;;;;;19.90;7.78;;;;;;;;;;6251969;23;20016;-88
2022/08/22 01:56:08;;;;;;;24.85;8.23;;;;;;;;;;6223928;23;20027;-90
2022/08/22 01:58:36;;;;;;;19.35;7.40;;;;;;;;;;6251311;23;20097;-87
2022/08/22 02:01:31;;;;;;;15.00;7.60;;;16.50;99.90;;;;;;6223364;23;20020;-88
2022/08/22 02:04:05;;;;;;;13.98;7.40;;;;;;;;;;6250668;23;20018;-90
2022/08/22 02:06:47;;;;;;;13.05;8.50;;;;;;;;;;6223219;23;20020;-87
2022/08/22 02:09:29;;;;;;;15.43;7.65;;;;;;;;;;6197151;23;20028;-87
2022/08/22 02:11:59;;;;;;;17.10;8.43;;;;;;;;;;6225452;23;20031;-87
2022/08/22 02:14:45;;;;;;;14.75;7.97;;;;;;;;;;6224007;23;20017;-88
2022/08/22 02:17:25;;;;;;;14.70;7.95;;;;;;;;;;6249147;23;20028;-88
2022/08/22 02:20:03;;;;;;;16.00;8.25;;;;;;;;;;6196943;23;20436;-87
2022/08/22 02:22:36;;;;;;;12.07;7.63;;;;;;;;;;6197522;23;20020;-88
2022/08/22 02:25:36;;;;;;;20.63;9.10;;;;;;;;;;6250104;23;20066;-86
2022/08/22 02:28:13;;;;;;;23.02;9.35;;;;;;;;;;6169838;23;20259;-87
2022/08/22 02:30:56;;;;;;;18.25;9.15;;;;;;;;;;6201740;23;20031;-89
2022/08/22 02:33:38;;;;;;;19.65;9.73;;;;;;;;;;6247432;23;20512;-86
2022/08/22 02:36:23;;;;;;;19.25;9.82;;;;;;;;;;6220590;23;20473;-86
2022/08/22 02:39:20;;;;;;;25.55;10.43;;;16.50;99.90;;;;;;6249485;23;20023;-88
2022/08/22 02:41:49;;;;;;;25.85;10.13;;;;;;;;;;6224913;23;20098;-89
2022/08/22 02:44:31;;;;;;;21.25;11.20;;;;;;;;;;6199986;23;20020;-87
2022/08/22 02:47:09;;;;;;;17.58;9.80;;;;;;;;;;6252458;23;20034;-90
2022/08/22 02:49:57;;;;;;;26.42;11.02;;;;;;;;;;6252010;23;20020;-87
2022/08/22 02:52:39;;;;;;;14.98;9.95;;;;;;;;;;6223518;23;20318;-89
2022/08/22 02:55:33;;;;;;;14.27;10.05;;;;;;;;;;6251187;23;20016;-87
2022/08/22 02:58:03;;;;;;;19.23;11.55;;;;;;;;;;6194506;23;20066;-84
2022/08/22 03:00:58;;;;;;;;;;;;;;;;;;;;;
2022/08/22 03:03:30;;;;;;;13.38;9.88;;;;;;;;;;6249523;23;20078;-87
2022/08/22 03:06:01;;;;;;;11.07;9.65;;;;;;;;;;6226708;23;20027;-87
2022/08/22 03:08:59;;;;;;;14.60;10.48;;;;;;;;;;6205668;23;20522;-88
2022/08/22 03:11:31;;;;;;;16.83;10.48;;;;;;;;;;6234463;23;20016;-86
2022/08/22 03:14:06;;;;;;;15.05;9.85;;;;;;;;;;6255285;23;20024;-88
2022/08/22 03:17:01;;;;;;;23.08;10.05;;;;;;;;;;6251035;23;20068;-89
2022/08/22 03:19:46;;;;;;;16.77;10.88;;;;;;;;;;6250075;23;20020;-87
2022/08/22 03:22:30;;;;;;;17.42;10.05;;;;;;;;;;6197654;23;20043;-89
2022/08/22 03:25:12;;;;;;;17.20;9.77;;;;;;;;;;6224453;23;20031;-88
2022/08/22 03:27:38;;;;;;;18.52;10.45;;;;;;;;;;6227657;23;20024;-88
2022/08/22 03:30:09;;;;;;;10.57;9.00;;;;;;;;;;6250984;23;20042;-87
2022/08/22 03:32:50;;;;;;;16.88;10.68;;;;;;;;;;6225602;23;20026;-88
2022/08/22 03:35:32;;;;;;;17.98;10.25;;;;;;;;;;6251318;23;20027;-85
2022/08/22 03:38:18;;;;;;;19.63;10.23;;;15.90;99.90;;;;;;6224127;23;20024;-84
2022/08/22 03:41:03;;;;;;;17.50;10.43;;;;;;;;;;6199867;23;20158;-87
2022/08/22 03:43:41;;;;;;;22.88;10.55;;;;;;;;;;6249377;23;20090;-89
2022/08/22 03:46:26;;;;;;;28.63;10.07;;;;;;;;;;6223556;23;20024;-88
2022/08/22 03:49:06;;;;;;;15.13;9.73;;;;;;;;;;6221722;23;20030;-87
2022/08/22 03:51:51;;;;;;;19.20;10.38;;;;;;;;;;6222623;23;20028;-84
2022/08/22 03:54:36;;;;;;;13.25;9.55;;;;;;;;;;6249776;23;20528;-85
2022/08/22 03:57:20;;;;;;;24.48;12.40;;;;;;;;;;6249404;23;20031;-87
2022/08/22 03:59:51;;;;;;;25.63;11.07;;;;;;;;;;6222955;23;20390;-85
2022/08/22 04:02:53;;;;;;;28.98;11.52;;;;;;;;;;6246859;23;20445;-86
2022/08/22 04:05:53;;;;;;;19.45;11.23;;;;;;;;;;6244989;23;20012;-86
2022/08/22 04:08:19;;;;;;;18.20;10.85;;;;;;;;;;6248996;23;20024;-85
2022/08/22 04:11:00;;;;;;;15.02;9.82;;;;;;;;;;6248518;23;20035;-85
2022/08/22 04:13:30;;;;;;;16.23;10.88;;;;;;;;;;6248291;23;20016;-86
2022/08/22 04:15:59;;;;;;;18.52;11.75;;;;;;;;;;6249071;23;20028;-85
2022/08/22 04:18:26;;;;;;;29.40;13.10;;;;;;;;;;6250874;23;20020;-89
2022/08/22 04:21:05;;;;;;;13.73;9.32;;;;;;;;;;6249105;23;20386;-86
2022/08/22 04:26:50;;;;;;;13.77;9.50;;;;;;;;;;6248928;23;20051;-87
2022/08/22 04:29:22;;;;;;;19.35;10.45;;;;;;;;;;6248724;23;20031;-85
2022/08/22 04:32:04;;;;;;;13.50;10.50;;;;;;;;;;6197992;23;20020;-88
2022/08/22 04:34:39;;;;;;;15.30;10.70;;;;;;;;;;6226974;23;20078;-87
2022/08/22 04:37:17;;;;;;;14.55;10.00;;;;;;;;;;6223960;23;20078;-87
2022/08/22 04:39:55;;;;;;;12.43;8.93;;;;;;;;;;6202189;23;20063;-87
2022/08/22 04:42:28;;;;;;;17.42;10.48;;;;;;;;;;6223127;23;20027;-89
2022/08/22 04:44:56;;;;;;;18.30;10.82;;;;;;;;;;6222428;23;20020;-86
2022/08/22 04:47:41;;;;;;;17.33;10.55;;;;;;;;;;6221517;23;20378;-85
2022/08/22 04:50:30;;;;;;;16.50;10.65;;;15.30;99.90;;;;;;6248866;23;20024;-85
2022/08/22 04:53:01;;;;;;;16.33;9.85;;;;;;;;;;6248142;23;20016;-85
2022/08/22 04:55:37;;;;;;;16.73;10.70;;;;;;;;;;6222863;23;20020;-85
2022/08/22 04:58:30;;;;;;;20.00;10.60;;;;;;;;;;6222604;23;20070;-85
2022/08/22 05:01:15;;;;;;;16.73;9.90;;;;;;;;;;6196270;23;20024;-84
2022/08/22 05:03:54;;;;;;;22.17;11.20;;;;;;;;;;6221698;23;20024;-84
2022/08/22 05:06:22;;;;;;;17.67;10.82;;;;;;;;;;6248060;23;20049;-86
2022/08/22 05:08:50;;;;;;;14.88;9.82;;;;;;;;;;6247562;23;20047;-86
2022/08/22 05:11:18;;;;;;;16.52;11.18;;;;;;;;;;6224765;23;20488;-84
2022/08/22 05:13:51;;;;;;;19.15;10.38;;;;;;;;;;6223808;23;20051;-86
2022/08/22 05:16:21;;;;;;;22.50;10.88;;;;;;;;;;6200621;23;20016;-86
2022/08/22 05:19:06;;;;;;;18.42;10.88;;;;;;;;;;6199367;23;20027;-86
2022/08/22 05:21:34;;;;;;;18.63;10.02;;;;;;;;;;6197726;23;20095;-85
2022/08/22 05:24:07;;;;;;;13.82;9.20;;;;;;;;;;6222474;23;20068;-86
2022/08/22 05:26:42;;;;;;;15.55;9.50;;;;;;;;;;6200003;23;20016;-87
2022/08/22 05:29:10;;;;;;;10.93;9.02;;;;;;;;;;6200342;23;20020;-87
2022/08/22 05:31:38;;;;;;;17.13;9.43;;;;;;;;;;6228019;23;20388;-87
2022/08/22 05:34:29;;;;;;;21.45;10.18;;;;;;;;;;6204692;23;20024;-87
2022/08/22 05:37:13;;;;;;;10.70;7.55;;;;;;;;;;6214574;23;20381;-86
2022/08/22 05:39:53;;;;;;;14.60;7.78;;;;;;;;;;6228972;23;20114;-88
2022/08/22 05:42:37;;;;;;;13.57;7.47;;;;;;;;;;6205449;23;20020;-86
2022/08/22 05:45:19;;;;;;;13.85;7.60;;;;;;;;;;6253573;23;20054;-87
2022/08/22 05:48:04;;;;;;;10.75;6.88;;;;;;;;;;6224697;23;20020;-87
2022/08/22 05:50:45;;;;;;;12.65;7.07;;;;;;;;;;6222156;23;20024;-86
2022/08/22 05:53:27;;;;;;;10.07;7.18;;;;;;;;;;6228746;23;20035;-89
2022/08/22 05:56:14;;;;;;;13.38;7.30;;;;;;;;;;6227037;23;20024;-88
2022/08/22 05:59:04;;;;;;;15.00;8.38;;;;;;;;;;6227629;23;20020;-88
2022/08/22 06:01:36;;;;;;;18.08;8.63;;;;;;;;;;6199711;23;20024;-88
2022/08/22 06:04:04;;;;;;;21.17;10.68;;;;;;;;;;6197568;23;20031;-89
2022/08/22 06:06:32;;;;;;;12.63;9.35;;;;;;;;;;6200188;23;20020;-90
2022/08/22 06:09:08;;;;;;;20.05;10.95;;;;;;;;;;6225093;23;20548;-89
2022/08/22 06:11:44;;;;;;;18.75;9.45;;;;;;;;;;6250518;22;20035;-88
2022/08/22 06:14:16;;;;;;;19.67;11.15;;;;;;;;;;6202022;23;20027;-89
2022/08/22 06:17:09;;;;;;;20.23;9.00;;;;;;;;;;6255234;23;20027;-89
2022/08/22 06:19:38;;;;;;;21.05;8.82;;;;;;;;;;6201465;23;20051;-88
2022/08/22 06:22:04;;;;;;;28.17;11.60;;;;;;;;;;6227880;23;20028;-89
2022/08/22 06:24:31;;;;;;;30.48;9.95;;;;;;;;;;6236928;22;20024;-89
2022/08/22 06:27:17;;;;;;;25.67;8.48;;;;;;;;;;6221995;23;20054;-88
2022/08/22 06:29:48;;;;;;;23.92;7.18;;;;;;;;;;6192736;23;20019;-87
2022/08/22 06:36:29;;;;;;;18.20;6.40;;;;;;;;;;6251355;22;20028;-87
2022/08/22 06:38:34;;;;;;;15.88;6.25;;;;;;;;;;6225561;23;20466;-86
2022/08/22 06:41:20;;;;;;;13.93;5.15;;;;;;;;;;6226013;23;20468;-87
2022/08/22 06:44:00;;;;;;;26.15;6.65;;;;;;;;;;6251618;23;20445;-87
2022/08/22 06:46:40;;;;;;;15.60;4.25;;;;;;;;;;6253342;23;20028;-87
2022/08/22 06:52:27;;;;;;;13.43;4.40;;;;;;;;;;6130139;23;20022;-89
2022/08/22 06:55:08;;;;;;;;;;;;;;;;;;6129747;23;20028;-88
2022/08/22 06:57:36;;;;;;;16.45;4.03;;;;;;;;;;6208888;23;19922;-87
2022/08/22 07:00:06;;;;;;;19.10;4.10;;;;;;;;;;6201967;23;20023;-87
2022/08/22 07:02:54;;;;;;;18.73;3.83;;;;;;;;;;6225717;23;20020;-87
2022/08/22 07:05:37;;;;;;;14.30;4.28;;;;;;;;;;6200909;23;20028;-87
2022/08/22 07:08:19;;;;;;;18.75;3.75;;;;;;;;;;6251352;23;20048;-88
2022/08/22 07:11:20;;;;;;;14.82;3.65;;;;;;;;;;6199554;23;20020;-87
2022/08/22 07:14:12;;;;;;;17.30;3.38;;;18.80;99.90;;;;;;6251996;23;20020;-87
2022/08/22 07:16:38;;;;;;;15.07;3.58;;;;;;;;;;6227772;23;20098;-87
2022/08/22 07:19:05;;;;;;;18.63;3.88;;;;;;;;;;6202051;23;20019;-87
2022/08/22 07:21:48;;;;;;;16.42;4.00;;;;;;;;;;6175825;23;20051;-87
2022/08/22 07:24:32;;;;;;;21.67;3.95;;;;;;;;;;6199005;23;20016;-88
2022/08/22 07:27:14;;;;;;;9.60;3.38;;;;;;;;;;6225108;23;20020;-87
2022/08/22 07:30:15;;;;;;;17.00;3.78;;;;;;;;;;6199737;23;20044;-88
2022/08/22 07:32:42;;;;;;;16.35;4.35;;;;;;;;;;6251954;23;20020;-87
2022/08/22 07:35:27;;;;;;;21.13;3.90;;;;;;;;;;6228585;23;20067;-88
2022/08/22 07:37:57;;;;;;;11.25;3.25;;;;;;;;;;6228373;23;20024;-87
2022/08/22 07:41:07;;;;;;;12.43;3.30;;;;;;;;;;6226644;23;20357;-87
2022/08/22 07:43:50;;;;;;;12.27;3.45;;;;;;;;;;6223468;23;20088;-86
2022/08/22 07:46:35;;;;;;;21.05;4.40;;;;;;;;;;6198401;23;20677;-87
2022/08/22 07:49:20;;;;;;;16.88;4.80;;;;;;;;;;6225451;23;20346;-87
2022/08/22 07:51:49;;;;;;;15.38;3.63;;;;;;;;;;6252364;23;20055;-88
2022/08/22 07:54:34;;;;;;;19.98;4.32;;;;;;;;;;6201508;23;20016;-87
2022/08/22 07:57:20;;;;;;;16.33;3.85;;;;;;;;;;6201772;23;20024;-88
2022/08/22 07:59:53;;;;;;;16.23;3.78;;;;;;;;;;6225876;23;20059;-87
2022/08/22 08:02:50;;;;;;;15.40;3.33;;;;;;;;;;6223603;23;20056;-87
2022/08/22 08:05:18;;;;;;;14.10;3.25;;;;;;;;;;6197841;23;20031;-89
2022/08/22 08:07:45;;;;;;;12.52;3.22;;;;;;;;;;6252956;23;20028;-87
2022/08/22 08:10:30;;;;;;;14.43;3.42;;;;;;;;;;6248846;22;20020;-87
2022/08/22 08:13:02;;;;;;;13.93;2.85;;;;;;;;;;6198524;23;20055;-88
2022/08/22 08:15:30;;;;;;;13.55;3.30;;;;;;;;;;6202165;23;20020;-89
2022/08/22 08:20:29;;;;;;;11.40;2.78;;;;;;;;;;6252021;23;20042;-88
2022/08/22 08:22:57;;;;;;;18.33;4.35;;;;;;;;;;6225339;23;20068;-89
2022/08/22 08:25:42;;;;;;;12.90;3.55;;;;;;;;;;6226309;23;20020;-86
2022/08/22 08:28:39;;;;;;;13.93;3.22;;;;;;;;;;6223705;23;20048;-89
2022/08/22 08:31:23;;;;;;;10.13;2.92;;;;;;;;;;6199524;23;20016;-88
2022/08/22 08:34:07;;;;;;;8.82;3.35;;;;;;;;;;6198532;23;20016;-89
2022/08/22 08:37:07;;;;;;;13.50;3.75;;;;;;;;;;6224814;23;20044;-88
2022/08/22 08:39:37;;;;;;;12.82;3.78;;;;;;;;;;6223055;23;20035;-89
2022/08/22 08:42:06;;;;;;;10.82;2.83;;;;;;;;;;6203246;23;20199;-88
2022/08/22 08:48:00;;;;;;;13.75;3.67;;;;;;;;;;6162238;23;20025;-90
2022/08/22 08:50:45;;;;;;;8.30;2.75;;;;;;;;;;6139622;23;20488;-89
2022/08/22 08:53:30;;;;;;;12.55;3.17;;;;;;;;;;6165143;23;20028;-89
2022/08/22 08:56:02;;;;;;;11.90;3.15;;;;;;;;;;6142461;23;20027;-89
2022/08/22 08:59:02;;;;;;;10.15;3.15;;;20.60;99.90;;;;;;6140907;23;20017;-88
2022/08/22 09:01:37;;;;;;;12.10;2.50;;;;;;;;;;6142664;23;20019;-89
2022/08/22 09:04:22;;;;;;;12.20;3.30;;;;;;;;;;6165803;23;21114;-88
2022/08/22 09:07:21;;;;;;;7.72;2.58;;;;;;;;;;6166050;23;20025;-89
2022/08/22 09:09:47;;;;;;;9.50;3.08;;;;;;;;;;6193594;23;20021;-89
2022/08/22 09:12:28;;;;;;;9.70;2.40;;;;;;;;;;6143636;23;20024;-90
2022/08/22 09:15:20;;;;;;;9.90;2.92;;;;;;;;;;6209004;23;20024;-89
2022/08/22 09:18:07;;;;;;;12.57;3.30;;;;;;;;;;6202118;23;20076;-90
2022/08/22 09:21:08;;;;;;;16.08;3.00;;;;;;;;;;6255666;23;20024;-89
2022/08/22 09:29:03;;;;;;;13.98;3.17;;;;;;;;;;6195975;23;20028;-87
2022/08/22 09:31:29;;;;;;;11.48;2.85;;;;;;;;;;6224449;23;20079;-86
2022/08/22 09:34:15;;;;;;;;;;;;;;;;;;;;;
2022/08/22 09:37:06;;;;;;;17.40;3.33;;;;;;;;;;6225702;23;20020;-86
2022/08/22 09:39:34;;;;;;;13.80;3.15;;;;;;;;;;6196075;23;20476;-86
2022/08/22 09:42:26;;;;;;;11.63;2.97;;;;;;;;;;6174074;23;20021;-87
2022/08/22 09:48:23;;;;;;;12.18;2.95;;;;;;;;;;6221361;23;20052;-86
2022/08/22 09:51:02;;;;;;;13.05;2.78;;;;;;;;;;6170019;23;20539;-88
2022/08/22 09:56:06;;;;;;;8.18;2.45;;;;;;;;;;6248048;22;20028;-86
2022/08/22 09:58:41;;;;;;;10.65;2.95;;;;;;;;;;6202293;23;20016;-86
2022/08/22 10:01:15;;;;;;;12.07;3.00;;;;;;;;;;6202097;23;20447;-87
2022/08/22 10:04:00;;;;;;;10.00;3.20;;;;;;;;;;6199117;23;20030;-85
2022/08/22 10:06:30;;;;;;;11.07;2.90;;;;;;;;;;6226549;23;20032;-87
2022/08/22 10:09:04;;;;;;;11.90;2.77;;;;;;;;;;6226529;23;20021;-86
2022/08/22 10:11:52;;;;;;;15.60;3.25;;;;;;;;;;6251687;23;20274;-86
2022/08/22 10:14:20;;;;;;;15.23;3.38;;;;;;;;;;6227017;23;20020;-86
2022/08/22 10:17:04;;;;;;;13.95;3.17;;;;;;;;;;6201587;23;20067;-86
2022/08/22 10:19:45;;;;;;;13.57;3.08;;;;;;;;;;6253063;23;20385;-85
2022/08/22 10:22:20;;;;;;;14.13;3.38;;;;;;;;;;6225824;23;20024;-86
2022/08/22 10:24:46;;;;;;;17.02;4.45;;;;;;;;;;6227066;23;20027;-86
2022/08/22 10:27:35;;;;;;;10.27;3.17;;;;;;;;;;6250740;23;20098;-86
2022/08/22 10:30:07;;;;;;;11.73;2.95;;;;;;;;;;6207871;23;20016;-87
2022/08/22 10:32:46;;;;;;;10.90;3.08;;;;;;;;;;6226604;23;20723;-87
2022/08/22 10:35:12;;;;;;;11.25;3.05;;;;;;;;;;6203257;23;20020;-88
2022/08/22 10:37:59;;;;;;;13.15;3.63;;;;;;;;;;6202273;23;20028;-88
2022/08/22 10:40:43;;;;;;;10.38;2.80;;;;;;;;;;6175857;23;20068;-89
2022/08/22 10:43:33;;;;;;;9.07;3.25;;;;;;;;;;6253475;23;20020;-89
2022/08/22 10:46:03;;;;;;;9.45;3.17;;;;;;;;;;6183285;23;20051;-88
2022/08/22 10:48:46;;;;;;;8.05;3.13;;;;;;;;;;6255040;23;20028;-88
2022/08/22 10:54:59;;;;;;;9.82;3.20;;;;;;;;;;6178372;23;20036;-88
2022/08/22 10:57:28;;;;;;;14.93;2.95;;;;;;;;;;6196345;23;20103;-89
2022/08/22 11:00:10;;;;;;;10.50;2.97;;;;;;;;;;6254780;23;20011;-89
2022/08/22 11:03:01;;;;;;;14.38;3.00;;;;;;;;;;6257021;23;20024;-87
2022/08/22 11:05:27;;;;;;;;;;;;;;;;;;6177057;23;20016;-87
2022/08/22 11:08:05;;;;;;;16.65;3.20;;;;;;;;;;6254493;23;19950;-88
2022/08/22 11:10:50;;;;;;;7.72;2.75;;;;;;;;;;6225892;23;20054;-88
2022/08/22 11:13:25;;;;;;;10.40;3.22;;;;;;;;;;6202525;23;20024;-87
2022/08/22 11:16:13;;;;;;;10.55;2.65;;;;;;;;;;6227218;23;20016;-88
2022/08/22 11:18:40;;;;;;;10.65;2.70;;;;;;;;;;6254444;23;20067;-87
2022/08/22 11:21:09;;;;;;;12.50;2.75;;;;;;;;;;6254259;23;20016;-87
2022/08/22 11:23:40;;;;;;;10.18;3.28;;;;;;;;;;6200898;23;20491;-86
2022/08/22 11:26:14;;;;;;;11.60;2.90;;;;;;;;;;6227072;23;20016;-87
2022/08/22 11:28:40;;;;;;;12.45;2.70;;;;;;;;;;6252869;23;20020;-87
2022/08/22 11:31:23;;;;;;;8.05;2.67;;;;;;;;;;6253444;23;20020;-87
2022/08/22 11:33:59;;;;;;;13.68;3.53;;;;;;;;;;6201421;23;20027;-86
2022/08/22 11:36:57;;;;;;;9.82;2.85;;;;;;;;;;6226531;23;20016;-86
2022/08/22 11:39:36;;;;;;;10.50;2.92;;;;;;;;;;6197422;23;20039;-88
2022/08/22 11:42:10;;;;;;;10.13;2.60;;;;;;;;;;6199230;23;20336;-87
2022/08/22 11:44:48;;;;;;;10.20;3.15;;;;;;;;;;6225001;23;20414;-87
2022/08/22 11:47:16;;;;;;;15.55;3.92;;;;;;;;;;6198875;23;20058;-87
2022/08/22 11:49:55;;;;;;;11.57;2.95;;;;;;;;;;6201064;23;20047;-87
2022/08/22 11:52:37;;;;;;;12.05;3.17;;;;;;;;;;6199251;23;20091;-88
2022/08/22 11:55:22;;;;;;;11.82;3.15;;;;;;;;;;6222768;23;20020;-87
2022/08/22 11:58:26;;;;;;;12.25;3.08;;;;;;;;;;6196367;23;20036;-86
2022/08/22 12:00:59;;;;;;;6.22;2.83;;;;;;;;;;6160561;23;20021;-86
2022/08/22 12:03:43;;;;;;;9.63;2.80;;;;;;;;;;6137781;23;20408;-87
2022/08/22 12:06:22;;;;;;;9.73;2.47;;;;;;;;;;6170884;23;20251;-87
2022/08/22 12:08:49;;;;;;;9.85;2.60;;;;;;;;;;6204724;23;20488;-85
2022/08/22 12:11:15;;;;;;;7.47;2.47;;;;;;;;;;6228742;23;20024;-86
2022/08/22 12:13:44;;;;;;;11.73;3.08;;;;;;;;;;6203426;23;20039;-87
2022/08/22 12:16:22;;;;;;;8.20;2.50;;;;;;;;;;6250026;23;20027;-87
2022/08/22 12:19:01;;;;;;;8.95;2.85;;;;;;;;;;6251282;23;20027;-85
2022/08/22 12:21:33;;;;;;;7.93;2.63;;;;;;;;;;6197513;23;20020;-86
2022/08/22 12:26:52;;;;;;;12.43;2.83;;;;;;;;;;6249429;22;20084;-87
2022/08/22 12:29:26;;;;;;;8.80;2.63;;;;;;;;;;6200038;23;20070;-89
2022/08/22 12:31:58;;;;;;;9.23;2.70;;;;;;;;;;6226303;23;20099;-91
2022/08/22 12:34:30;;;;;;;11.33;2.77;;;;;;;;;;6226009;23;20020;-89
2022/08/22 12:37:25;;;;;;;13.40;2.60;;;;;;;;;;6200873;23;20016;-86
2022/08/22 12:39:52;;;;;;;7.32;2.22;;;;;;;;;;6202852;23;20035;-86
2022/08/22 12:42:19;;;;;;;10.32;2.40;;;;;;;;;;6255640;23;20083;-90
2022/08/22 12:45:05;;;;;;;9.48;3.22;;;;;;;;;;6228299;23;20020;-89
2022/08/22 12:47:40;;;;;;;9.35;2.50;;;;;;;;;;6229766;23;20020;-86
2022/08/22 12:50:07;;;;;;;5.90;2.08;;;;;;;;;;6204894;23;20349;-87
2022/08/22 12:52:52;;;;;;;7.93;2.40;;;28.70;99.90;;;;;;6254530;23;20020;-88
2022/08/22 12:55:24;;;;;;;7.25;2.00;;;;;;;;;;6201903;23;20039;-89
2022/08/22 12:58:23;;;;;;;8.20;2.25;;;;;;;;;;6229714;23;20024;-90
2022/08/22 13:00:50;;;;;;;7.63;2.20;;;;;;;;;;6111594;23;20020;-88
2022/08/22 13:03:28;;;;;;;7.63;2.20;;;;;;;;;;6203904;23;20040;-89
2022/08/22 13:05:55;;;;;;;10.00;3.05;;;;;;;;;;6203653;23;20020;-89
2022/08/22 13:08:28;;;;;;;11.43;2.80;;;;;;;;;;6227966;23;20008;-90
2022/08/22 13:11:06;;;;;;;;;;;;;;;;;;6229325;23;20032;-87
2022/08/22 13:13:37;;;;;;;5.88;2.17;;;;;;;;;;6201385;23;19916;-89
2022/08/22 13:16:14;;;;;;;6.88;2.35;;;;;;;;;;6203396;23;20031;-89
2022/08/22 13:18:55;;;;;;;8.10;2.20;;;;;;;;;;6227589;23;20024;-90
2022/08/22 13:21:25;;;;;;;10.27;2.45;;;;;;;;;;6203388;23;20095;-88
2022/08/22 13:26:27;;;;;;;6.35;2.20;;;;;;;;;;6253114;22;20027;-91
2022/08/22 13:28:56;;;;;;;6.75;2.30;;;;;;;;;;6190628;23;20032;-90
2022/08/22 13:31:28;;;;;;;5.85;2.35;;;;;;;;;;6226901;23;20016;-91
2022/08/22 13:33:59;;;;;;;11.32;2.40;;;;;;;;;;6203121;23;20046;-92
2022/08/22 13:36:26;;;;;;;8.60;2.20;;;;;;;;;;6201414;23;20047;-91
2022/08/22 13:38:56;;;;;;;8.55;2.40;;;;;;;;;;6201529;23;20043;-90
2022/08/22 13:41:25;;;;;;;8.82;2.40;;;;;;;;;;6253060;23;20031;-90
2022/08/22 13:44:12;;;;;;;12.05;3.00;;;;;;;;;;6227572;23;20020;-89
2022/08/22 13:46:38;;;;;;;12.63;2.45;;;;;;;;;;6201423;23;20048;-90
2022/08/22 13:49:09;;;;;;;11.80;2.45;;;;;;;;;;6226677;23;20067;-90
2022/08/22 13:51:35;;;;;;;7.97;2.25;;;;;;;;;;6224945;23;20070;-90
2022/08/22 13:54:20;;;;;;;9.05;2.10;;;;;;;;;;6227178;23;20460;-88
2022/08/22 13:57:00;;;;;;;8.88;2.58;;;;;;;;;;6201311;23;20016;-90
2022/08/22 13:59:42;;;;;;;8.40;2.60;;;;;;;;;;6203337;23;20093;-90
2022/08/22 14:02:25;;;;;;;6.15;2.42;;;;;;;;;;6227219;23;20243;-89
2022/08/22 14:04:52;;;;;;;9.40;2.53;;;;;;;;;;6201436;23;20028;-92
2022/08/22 14:07:18;;;;;;;10.85;3.00;;;;;;;;;;6252996;23;20250;-90
2022/08/22 14:10:23;;;;;;;8.60;2.78;;;;;;;;;;6202157;23;20027;-88
2022/08/22 14:12:58;;;;;;;11.88;2.70;;;;;;;;;;6051677;23;20037;-88
2022/08/22 14:15:37;;;;;;;8.30;2.50;;;;;;;;;;6205182;23;20020;-85
2022/08/22 14:18:12;;;;;;;6.32;2.35;;;;;;;;;;6251369;23;20052;-89
2022/08/22 14:20:39;;;;;;;8.63;2.42;;;;;;;;;;6201307;23;20020;-88
2022/08/22 14:23:08;;;;;;;8.32;2.38;;;;;;;;;;6226077;23;20050;-88
2022/08/22 14:25:36;;;;;;;6.80;2.10;;;;;;;;;;6224249;23;20020;-86
2022/08/22 14:28:11;;;;;;;12.85;3.05;;;;;;;;;;6222361;23;20414;-85
2022/08/22 14:30:51;;;;;;;8.73;2.25;;;;;;;;;;6223347;23;20023;-86
2022/08/22 14:33:24;;;;;;;10.30;2.65;;;;;;;;;;6222610;23;20051;-87
2022/08/22 14:35:52;;;;;;;7.05;2.25;;;;;;;;;;6248140;23;20141;-86
2022/08/22 14:38:21;;;;;;;12.38;2.60;;;;;;;;;;6222329;23;20020;-87
2022/08/22 14:40:53;;;;;;;8.40;2.22;;;;;;;;;;6247173;23;20028;-88
2022/08/22 14:43:28;;;;;;;9.07;2.45;;;;;;;;;;6222146;23;20075;-88
2022/08/22 14:46:00;;;;;;;8.25;2.15;;;;;;;;;;6248098;23;20035;-86
2022/08/22 14:48:37;;;;;;;6.33;2.67;;;;;;;;;;6249936;23;20047;-88
2022/08/22 14:51:22;;;;;;;8.60;2.35;;;;;;;;;;6223770;23;20020;-88
2022/08/22 14:53:48;;;;;;;5.53;1.95;;;;;;;;;;6225442;23;20023;-85
2022/08/22 14:56:17;;;;;;;7.22;2.50;;;;;;;;;;6227125;23;20055;-85
2022/08/22 14:58:52;;;;;;;8.98;2.53;;;;;;;;;;6249078;23;20020;-86
2022/08/22 15:01:20;;;;;;;14.07;3.47;;;;;;;;;;6222730;23;20031;-86
2022/08/22 15:03:55;;;;;;;8.15;2.85;;;;;;;;;;6247083;23;20016;-87
2022/08/22 15:06:40;;;;;;;6.53;2.33;;;;;;;;;;6248036;23;20028;-86
2022/08/22 15:09:10;;;;;;;7.90;2.60;;;;;;;;;;6222320;23;20047;-88
2022/08/22 15:11:37;;;;;;;7.65;2.38;;;;;;;;;;6246777;23;20051;-84
2022/08/22 15:14:06;;;;;;;8.68;2.35;;;;;;;;;;6226549;23;20024;-86
2022/08/22 15:16:37;;;;;;;8.43;2.53;;;;;;;;;;6198213;23;20348;-86
2022/08/22 15:19:21;;;;;;;8.45;2.60;;;;;;;;;;6223216;23;20020;-86
2022/08/22 15:21:47;;;;;;;5.32;2.20;;;;;;;;;;6244978;23;20500;-86
2022/08/22 15:24:14;;;;;;;8.40;2.30;;;;;;;;;;6221354;23;20020;-85
2022/08/22 15:26:49;;;;;;;6.75;2.28;;;;;;;;;;6248281;23;20020;-86
2022/08/22 15:29:21;;;;;;;8.75;2.50;;;;;;;;;;6246825;23;20087;-86
2022/08/22 15:31:52;;;;;;;10.03;2.57;;;;;;;;;;6219495;23;20024;-84
2022/08/22 15:34:21;;;;;;;6.22;2.10;;;;;;;;;;6219097;23;20343;-83
2022/08/22 15:36:58;;;;;;;7.03;2.30;;;;;;;;;;6220951;23;20024;-83
2022/08/22 15:39:27;;;;;;;7.55;2.50;;;;;;;;;;6248752;23;20016;-86
2022/08/22 15:41:53;;;;;;;9.07;2.47;;;;;;;;;;6248967;23;20025;-86
2022/08/22 15:44:19;;;;;;;9.23;2.67;;;;;;;;;;6222018;23;20490;-88
2022/08/22 15:46:51;;;;;;;9.82;2.65;;;;;;;;;;6196102;23;20437;-84
2022/08/22 15:49:20;;;;;;;8.90;2.50;;;;;;;;;;6247250;23;20036;-87
2022/08/22 15:52:02;;;;;;;10.98;2.65;;;;;;;;;;6247181;23;20055;-83
2022/08/22 15:54:43;;;;;;;6.65;2.33;;;;;;;;;;6247007;23;20091;-84
2022/08/22 15:57:09;;;;;;;6.72;2.30;;;;;;;;;;6247261;23;20016;-85
2022/08/22 15:59:48;;;;;;;8.32;2.67;;;;;;;;;;6247488;23;20044;-84
2022/08/22 16:02:24;;;;;;;10.95;2.25;;;;;;;;;;6219233;23;20027;-85
2022/08/22 16:04:54;;;;;;;8.45;2.45;;;;;;;;;;6248321;23;20384;-87
2022/08/22 16:07:20;;;;;;;18.52;2.90;;;;;;;;;;6248758;23;20023;-85
2022/08/22 16:09:48;;;;;;;9.88;2.63;;;;;;;;;;6194292;23;20023;-84